Extrem niedrige Temperatur Gültig von: 23-02-2018 17:00 bis: 24-02-2018 10:00 Warnung für: Extrem niedrige Temperatur Gefahrenstufe: Gelb info button
deutsch:
Es tritt mäßiger Frost zwischen -5 °C und -8 °C auf. 
Wind Gültig von: 23-02-2018 10:00 bis: 17:00 Warnung für: Wind Gefahrenstufe: Gelb info button
deutsch:
Es treten Windböen mit Geschwindigkeiten um 55 km/h (15m/s, 30kn, Bft 7) aus nordöstlicher Richtung auf. 

Besuchen Sie unsere anderen Wetter Stationen:

Template documentation
and downloads

And another site



METAR-Meldungen aus der Umgebung

   
EBAW - Antwerp
Aktualisierung: 23-02-2018 15:20
Klar  
Klar  
   Wind: Osten 22.2 km/h
Wind: Osten 22.2 km/h
Temperatur: 4°C
Gefühlt: -1°C
Taupunkt: -9°C
Luftfeuchte: 39%
Luftdruck: 1020 hPa
Sichtbarkeit: Mehr als 10 km
Bewölkung: Klar
EBAW 231420Z 08012KT 050V110 CAVOK 04/M09 Q1020 NOSIG
EBLG - Liège
Aktualisierung: 23-02-2018 15:20
Klar  
Klar  
   Wind: ONO 22.2 km/h
Wind: ONO 22.2 km/h
Temperatur: 2°C
Gefühlt: -3°C
Taupunkt: -11°C
Luftfeuchte: 38%
Luftdruck: 1018 hPa
Sichtbarkeit: Mehr als 10 km
Bewölkung: Klar
EBLG 231420Z 07012KT CAVOK 02/M11 Q1018 NOSIG
EBCV - Mons/Bergen
Aktualisierung: 23-02-2018 14:55
  
  
   Wind: ONO 25.9 km/h
Wind: ONO 25.9 km/h
Temperatur: 3°C
Gefühlt: -2°C
Taupunkt: -6°C
Luftfeuchte: 52%
Luftdruck: 1019 hPa
Sichtbarkeit: Mehr als 10 km
EBCV 231355Z AUTO 06014KT 9999 /// 03/M06 Q1019 BLU
EHBK - Maastricht
Aktualisierung: 23-02-2018 14:55
Klar  
Klar  
   Wind: ONO 31.5 km/h
Wind: ONO 31.5 km/h
Temperatur: 3°C
Gefühlt: -3°C
Taupunkt: -8°C
Luftfeuchte: 45%
Luftdruck: 1019 hPa
Bewölkt: Klar
Sichtbarkeit: Mehr als 10 km
Bewölkung: Klar
EHBK 231355Z AUTO 06017KT 030V100 9999 NCD 03/M08 Q1019 NOSIG
ELLX - Luxemburg
Aktualisierung: 23-02-2018 15:20
Klar  
Klar  
   Wind: NO 35.2 km/h
Wind: NO 35.2 km/h
Temperatur: 1°C
Gefühlt: -6°C
Taupunkt: -9°C
Luftfeuchte: 48%
Luftdruck: 1015 hPa
Sichtbarkeit: Mehr als 10 km
Bewölkung: Klar
ELLX 231420Z 04019KT CAVOK 01/M09 Q1015 NOSIG
EBOS - Oostende
Aktualisierung: 23-02-2018 15:20
leicht bewölkt  
leicht bewölkt  
   Wind: ONO 27.8 km/h
Wind: ONO 27.8 km/h
Temperatur: 2°C
Gefühlt: -4°C
Taupunkt: -5°C
Luftfeuchte: 60%
Luftdruck: 1020 hPa
Bewölkt: leicht bewölkt
Sichtbarkeit: Mehr als 10 km
Bewölkung: leicht bewölkt 2800 ft
EBOS 231420Z 06015KT 9999 FEW028 02/M05 Q1020 TEMPO 07016G26KT

Script entwickelt von  Saratoga-weather.org Angepasst für das Template von  Weerstation Leuven

Sie finden unser Wetter-Infos auch auf:

netzwerkwettercom

European Weather Network

Weather Underground

AWEKAS

Citizen Weather Observer Program (CWOP)

HAMweather, WeatherForYou, PWS Weather

Von uns verwendete Ausrüstung:

Wetterstation
Davis VP2 Aktiv Plus 6163EU

Wetterprogramm
Weather Display

Davis VP2 Aktiv Plus  6163EU

Weather Display